createdAt,value
2023-04-28T00:00:02.528Z,12.10
2023-04-28T00:02:30.584Z,12.10
2023-04-28T00:04:59.254Z,12.00
2023-04-28T00:07:27.173Z,11.90
2023-04-28T00:09:55.091Z,11.70
2023-04-28T00:12:24.382Z,11.50
2023-04-28T00:14:52.264Z,11.30
2023-04-28T00:17:20.226Z,11.30
2023-04-28T00:19:48.172Z,11.30
2023-04-28T00:22:16.304Z,11.40
2023-04-28T00:24:44.150Z,11.40
2023-04-28T00:27:12.095Z,11.40
2023-04-28T00:29:41.349Z,11.40
2023-04-28T00:32:09.384Z,11.20
2023-04-28T00:34:37.575Z,11.30
2023-04-28T00:37:05.506Z,11.30
2023-04-28T00:39:33.398Z,11.10
2023-04-28T00:46:59.950Z,11.20
2023-04-28T00:49:27.995Z,11.20
2023-04-28T00:51:55.922Z,11.30
2023-04-28T01:01:49.042Z,11.40
2023-04-28T01:04:21.552Z,11.40
2023-04-28T01:06:50.996Z,11.40
2023-04-28T01:09:19.041Z,11.40
2023-04-28T01:11:46.927Z,11.40
2023-04-28T01:14:15.115Z,11.40
2023-04-28T01:16:43.215Z,11.40
2023-04-28T01:19:15.810Z,11.30
2023-04-28T01:21:45.055Z,11.40
2023-04-28T01:24:14.634Z,11.30
2023-04-28T01:26:42.875Z,11.30
2023-04-28T01:29:10.769Z,11.30
2023-04-28T01:31:38.719Z,11.40
2023-04-28T01:34:06.634Z,11.30
2023-04-28T01:36:37.300Z,11.40
2023-04-28T01:39:05.940Z,11.40
2023-04-28T01:41:35.487Z,11.40
2023-04-28T01:44:03.999Z,11.50
2023-04-28T01:46:31.917Z,11.40
2023-04-28T01:48:59.908Z,11.40
2023-04-28T01:51:28.003Z,11.40
2023-04-28T01:53:55.914Z,11.40
2023-04-28T01:56:23.851Z,11.40
2023-04-28T01:58:53.212Z,11.40
2023-04-28T02:01:21.092Z,11.30
2023-04-28T02:03:49.252Z,11.30
2023-04-28T02:06:17.449Z,11.20
2023-04-28T02:08:45.390Z,11.20
2023-04-28T02:11:13.428Z,11.10
2023-04-28T02:13:41.703Z,11.10
2023-04-28T02:16:11.013Z,11.00
2023-04-28T02:18:38.929Z,10.90
2023-04-28T02:21:10.006Z,10.70
2023-04-28T02:23:37.922Z,10.60
2023-04-28T02:26:05.900Z,10.40
2023-04-28T02:28:33.841Z,10.40
2023-04-28T02:31:05.477Z,10.50
2023-04-28T02:33:34.839Z,10.50
2023-04-28T02:36:03.140Z,10.50
2023-04-28T02:38:31.209Z,10.60
2023-04-28T02:41:00.006Z,10.60
2023-04-28T02:43:28.236Z,10.60
2023-04-28T02:45:56.485Z,10.70
2023-04-28T02:48:24.403Z,10.70
2023-04-28T02:50:53.893Z,10.70
2023-04-28T02:53:22.130Z,10.80
2023-04-28T02:55:50.084Z,10.80
2023-04-28T02:58:18.683Z,10.80
2023-04-28T03:00:46.832Z,10.80
2023-04-28T03:03:15.128Z,10.80
2023-04-28T03:05:43.195Z,10.80
2023-04-28T03:08:12.457Z,10.90
2023-04-28T03:10:40.390Z,10.80
2023-04-28T03:13:08.298Z,10.90
2023-04-28T03:15:36.253Z,10.80
2023-04-28T03:18:04.270Z,10.90
2023-04-28T03:20:32.278Z,10.80
2023-04-28T03:23:00.250Z,10.80
2023-04-28T03:25:29.583Z,10.70
2023-04-28T03:27:57.487Z,10.70
2023-04-28T03:30:25.419Z,10.70
2023-04-28T03:32:53.351Z,10.70
2023-04-28T03:35:21.645Z,10.70
2023-04-28T03:37:49.693Z,10.70
2023-04-28T03:40:18.209Z,10.60
2023-04-28T03:42:47.505Z,10.60
2023-04-28T03:45:15.848Z,10.60
2023-04-28T03:47:43.767Z,10.60
2023-04-28T03:50:11.958Z,10.60
2023-04-28T03:52:39.983Z,10.60
2023-04-28T03:55:08.265Z,10.60
2023-04-28T03:57:36.163Z,10.60
2023-04-28T04:00:06.021Z,10.70
2023-04-28T04:02:34.154Z,10.70
2023-04-28T04:05:02.401Z,10.70
2023-04-28T04:07:30.581Z,10.70
2023-04-28T04:09:58.469Z,10.70
2023-04-28T04:12:26.395Z,10.70
2023-04-28T04:14:54.295Z,10.70
2023-04-28T04:17:23.596Z,10.70
2023-04-28T04:19:51.536Z,10.70
2023-04-28T04:22:19.464Z,10.70
2023-04-28T04:24:47.437Z,10.80
2023-04-28T04:27:15.374Z,10.80
2023-04-28T04:29:43.303Z,10.80
2023-04-28T04:32:11.160Z,10.80
2023-04-28T04:39:36.800Z,11.10
2023-04-28T04:42:16.735Z,11.10
2023-04-28T04:44:50.893Z,11.10
2023-04-28T04:49:47.022Z,10.90
2023-04-28T04:52:14.893Z,10.90
2023-04-28T04:54:44.130Z,10.90
2023-04-28T04:57:12.363Z,10.90
2023-04-28T04:59:40.264Z,10.90
2023-04-28T05:02:08.347Z,11.00
2023-04-28T05:04:36.653Z,10.90
2023-04-28T05:07:04.663Z,10.90
2023-04-28T05:09:33.220Z,10.90
2023-04-28T05:17:00.054Z,11.10
2023-04-28T05:19:28.016Z,11.20
2023-04-28T05:21:56.004Z,11.10
2023-04-28T05:24:24.635Z,11.10
2023-04-28T05:26:52.899Z,11.00
2023-04-28T05:29:20.855Z,11.00
2023-04-28T05:31:48.832Z,11.00
2023-04-28T05:34:18.431Z,11.10
2023-04-28T05:36:46.435Z,11.10
2023-04-28T05:39:14.351Z,11.10
2023-04-28T05:41:42.432Z,11.10
2023-04-28T05:44:10.366Z,11.20
2023-04-28T05:46:38.287Z,11.10
2023-04-28T05:49:06.216Z,11.20
2023-04-28T05:51:35.457Z,11.20
2023-04-28T05:54:03.352Z,11.20
2023-04-28T05:56:31.376Z,11.30
2023-04-28T05:59:00.886Z,11.30
2023-04-28T06:01:28.817Z,11.40
2023-04-28T06:03:58.702Z,11.40
2023-04-28T06:06:27.861Z,11.40
2023-04-28T06:11:25.460Z,11.40
2023-04-28T06:13:53.322Z,11.40
2023-04-28T06:21:21.429Z,11.50
2023-04-28T06:23:49.418Z,11.50
2023-04-28T06:26:18.384Z,11.40
2023-04-28T06:28:47.970Z,11.50
2023-04-28T06:33:44.387Z,11.70
2023-04-28T06:36:14.053Z,11.70
2023-04-28T06:38:43.077Z,11.70
2023-04-28T06:41:11.379Z,11.80
2023-04-28T06:43:39.424Z,11.90
2023-04-28T06:46:08.762Z,12.00
2023-04-28T06:48:36.665Z,12.10
2023-04-28T06:51:05.075Z,12.10
2023-04-28T06:53:33.711Z,12.10
2023-04-28T06:56:02.633Z,12.10
2023-04-28T06:58:30.794Z,12.20
2023-04-28T07:00:58.814Z,12.20
2023-04-28T07:03:28.705Z,12.30
2023-04-28T07:05:56.764Z,12.40
2023-04-28T07:08:24.655Z,12.50
2023-04-28T07:10:52.567Z,12.60
2023-04-28T07:13:20.466Z,12.60
2023-04-28T07:15:48.381Z,12.70
2023-04-28T07:18:16.513Z,12.80
2023-04-28T07:20:45.849Z,12.90
2023-04-28T07:23:13.719Z,13.00
2023-04-28T07:25:42.249Z,13.10
2023-04-28T07:28:10.365Z,13.20
2023-04-28T07:30:38.299Z,13.30
2023-04-28T07:33:06.241Z,13.40
2023-04-28T07:35:34.433Z,13.40
2023-04-28T07:38:03.907Z,13.50
2023-04-28T07:40:31.847Z,13.60
2023-04-28T07:42:59.872Z,13.70
2023-04-28T07:45:27.828Z,13.80
2023-04-28T07:47:55.850Z,13.80
2023-04-28T07:50:23.804Z,13.80
2023-04-28T07:52:52.010Z,13.90
2023-04-28T07:55:21.306Z,14.10
2023-04-28T07:57:49.607Z,14.10
2023-04-28T08:00:18.529Z,14.20
2023-04-28T08:02:46.566Z,15.10
2023-04-28T08:05:14.841Z,15.10
2023-04-28T08:07:42.930Z,15.40
2023-04-28T08:10:11.677Z,15.60
2023-04-28T08:12:41.892Z,15.70
2023-04-28T08:15:10.350Z,15.70
2023-04-28T08:17:38.301Z,15.70
2023-04-28T08:20:06.917Z,15.60
2023-04-28T08:22:34.821Z,15.60
2023-04-28T08:25:02.716Z,15.60
2023-04-28T08:27:30.721Z,15.60
2023-04-28T08:29:59.995Z,15.60
2023-04-28T08:32:27.968Z,15.60
2023-04-28T08:34:55.847Z,15.70
2023-04-28T08:37:23.759Z,15.70
2023-04-28T08:39:52.761Z,15.70
2023-04-28T08:42:20.767Z,15.80
2023-04-28T08:44:49.209Z,15.80
2023-04-28T08:47:20.027Z,15.90
2023-04-28T08:49:48.773Z,15.90
2023-04-28T08:52:18.285Z,16.10
2023-04-28T08:54:47.211Z,16.20
2023-04-28T08:57:15.117Z,16.10
2023-04-28T08:59:43.108Z,15.90
2023-04-28T09:02:11.597Z,16.00
2023-04-28T09:04:41.459Z,16.20
2023-04-28T09:07:12.185Z,16.30
2023-04-28T09:09:41.015Z,16.20
2023-04-28T09:12:09.307Z,16.40
2023-04-28T09:14:38.210Z,16.30
2023-04-28T09:17:10.994Z,16.30
2023-04-28T09:19:39.255Z,16.30
2023-04-28T09:22:24.974Z,16.40
2023-04-28T09:24:55.323Z,16.50
2023-04-28T09:27:28.087Z,16.40
2023-04-28T09:29:56.054Z,16.40
2023-04-28T09:32:24.865Z,16.50
2023-04-28T09:34:54.009Z,16.60
2023-04-28T09:39:52.182Z,16.80
2023-04-28T09:42:32.515Z,16.80
2023-04-28T09:45:00.840Z,16.70
2023-04-28T09:47:28.789Z,16.70
2023-04-28T09:49:57.178Z,16.80
2023-04-28T09:52:25.280Z,17.00
2023-04-28T09:54:56.874Z,17.10
2023-04-28T09:57:25.126Z,17.20
2023-04-28T09:59:53.579Z,17.20
2023-04-28T10:02:42.103Z,17.20
2023-04-28T10:05:11.434Z,17.70
2023-04-28T10:07:40.312Z,17.70
2023-04-28T10:10:10.050Z,17.70
2023-04-28T10:12:39.078Z,17.80
2023-04-28T10:15:08.466Z,17.90
2023-04-28T10:17:37.088Z,18.20
2023-04-28T10:20:06.492Z,18.30
2023-04-28T10:22:43.389Z,18.50
2023-04-28T10:25:26.029Z,18.30
2023-04-28T10:27:54.216Z,18.40
2023-04-28T10:30:28.293Z,18.10
2023-04-28T10:33:18.093Z,18.20
2023-04-28T10:35:47.807Z,19.30
2023-04-28T10:38:16.056Z,18.40
2023-04-28T10:40:45.712Z,18.10
2023-04-28T10:43:14.161Z,17.80
2023-04-28T10:46:01.418Z,18.00
2023-04-28T10:48:48.068Z,17.80
2023-04-28T10:51:25.707Z,17.70
2023-04-28T10:54:15.149Z,17.60
2023-04-28T10:57:04.631Z,17.70
2023-04-28T10:59:32.679Z,17.80
2023-04-28T11:02:15.472Z,18.00
2023-04-28T11:04:58.388Z,18.10
2023-04-28T11:07:26.295Z,18.00
2023-04-28T11:09:54.257Z,18.20
2023-04-28T11:12:23.520Z,18.20
2023-04-28T11:14:51.413Z,18.30
2023-04-28T11:17:34.636Z,18.30
2023-04-28T11:20:04.446Z,18.40
2023-04-28T11:22:32.488Z,18.20
2023-04-28T11:25:01.367Z,18.00
2023-04-28T11:27:31.235Z,18.00
2023-04-28T11:29:59.224Z,18.00
2023-04-28T11:32:28.484Z,18.20
2023-04-28T11:34:56.471Z,18.20
2023-04-28T11:37:24.370Z,18.20
2023-04-28T11:39:52.533Z,18.20
2023-04-28T11:42:20.556Z,17.80
2023-04-28T11:44:53.811Z,17.70
2023-04-28T11:47:31.713Z,18.00
2023-04-28T11:50:01.266Z,17.80
2023-04-28T11:52:29.294Z,17.70
2023-04-28T11:54:57.585Z,17.70
2023-04-28T11:57:25.942Z,17.60
2023-04-28T11:59:55.324Z,17.60
2023-04-28T12:02:28.424Z,17.50
2023-04-28T12:04:56.639Z,17.40
2023-04-28T12:07:24.648Z,17.40
2023-04-28T12:10:07.674Z,17.10
2023-04-28T12:12:45.815Z,17.10
2023-04-28T12:15:21.929Z,16.90
2023-04-28T12:17:50.924Z,16.90
2023-04-28T12:20:35.215Z,16.90
2023-04-28T12:23:03.626Z,17.00
2023-04-28T12:25:31.628Z,16.90
2023-04-28T12:28:00.719Z,16.90
2023-04-28T12:30:30.386Z,16.80
2023-04-28T12:32:58.518Z,16.70
2023-04-28T12:35:27.292Z,16.90
2023-04-28T12:37:56.137Z,16.70
2023-04-28T12:40:24.546Z,16.70
2023-04-28T12:42:52.852Z,16.70
2023-04-28T12:45:20.797Z,16.60
2023-04-28T12:47:50.091Z,16.50
2023-04-28T12:50:18.035Z,16.60
2023-04-28T12:52:45.946Z,16.70
2023-04-28T12:55:13.891Z,16.80
2023-04-28T12:57:42.051Z,16.80
2023-04-28T13:00:10.547Z,16.80
2023-04-28T13:02:38.999Z,16.90
2023-04-28T13:05:09.376Z,16.70
2023-04-28T13:07:37.360Z,16.80
2023-04-28T13:10:05.552Z,16.50
2023-04-28T13:12:33.709Z,16.70
2023-04-28T13:15:02.797Z,16.80
2023-04-28T13:17:30.874Z,16.70
2023-04-28T13:19:58.807Z,16.70
2023-04-28T13:22:28.207Z,16.40
2023-04-28T13:24:56.174Z,16.40
2023-04-28T13:27:24.436Z,16.50
2023-04-28T13:29:52.434Z,16.30
2023-04-28T13:32:20.543Z,16.30
2023-04-28T13:34:48.690Z,16.00
2023-04-28T13:37:16.978Z,16.20
2023-04-28T13:39:46.429Z,16.30
2023-04-28T13:42:14.379Z,16.20
2023-04-28T13:44:42.260Z,16.10
2023-04-28T13:47:10.972Z,16.20
2023-04-28T13:49:39.919Z,16.20
2023-04-28T13:52:07.856Z,16.10
2023-04-28T13:54:35.781Z,16.10
2023-04-28T13:57:05.060Z,16.10
2023-04-28T13:59:33.026Z,16.20
2023-04-28T14:02:00.939Z,16.30
2023-04-28T14:04:29.002Z,16.30
2023-04-28T14:06:57.354Z,16.20
2023-04-28T14:09:25.315Z,16.30
2023-04-28T14:11:56.532Z,16.30
2023-04-28T14:14:26.434Z,16.30
2023-04-28T14:16:54.322Z,16.20
2023-04-28T14:19:22.496Z,16.20
2023-04-28T14:21:50.392Z,16.20
2023-04-28T14:24:18.786Z,16.20
2023-04-28T14:26:47.304Z,16.20
2023-04-28T14:29:15.434Z,16.20
2023-04-28T14:31:44.749Z,16.20
2023-04-28T14:34:12.706Z,16.20
2023-04-28T14:36:42.258Z,16.20
2023-04-28T14:39:10.183Z,16.20
2023-04-28T14:41:38.037Z,16.20
2023-04-28T14:44:06.245Z,16.20
2023-04-28T14:46:34.179Z,16.20
2023-04-28T14:49:03.815Z,16.20
2023-04-28T14:51:31.715Z,16.40
2023-04-28T14:53:59.649Z,16.60
2023-04-28T14:56:27.794Z,16.70
2023-04-28T14:58:55.703Z,16.80
2023-04-28T15:01:23.720Z,16.90
2023-04-28T15:03:51.817Z,16.90
2023-04-28T15:06:21.326Z,16.90
2023-04-28T15:08:49.185Z,16.50
2023-04-28T15:11:17.121Z,16.60
2023-04-28T15:13:45.068Z,16.50
2023-04-28T15:16:13.059Z,16.70
2023-04-28T15:18:40.990Z,16.80
2023-04-28T15:21:09.476Z,16.80
2023-04-28T15:23:38.923Z,16.90
2023-04-28T15:26:06.811Z,16.90
2023-04-28T15:28:35.316Z,16.70
2023-04-28T15:31:05.009Z,17.00
2023-04-28T15:33:33.673Z,17.00
2023-04-28T15:36:01.662Z,17.00
2023-04-28T15:38:32.027Z,17.10
2023-04-28T15:41:01.519Z,17.10
2023-04-28T15:43:29.447Z,17.10
2023-04-28T15:45:57.430Z,17.20
2023-04-28T15:48:25.363Z,17.10
2023-04-28T15:50:53.232Z,17.10
2023-04-28T15:53:21.454Z,17.10
2023-04-28T15:55:49.531Z,17.00
2023-04-28T15:58:18.825Z,17.00
2023-04-28T16:00:47.073Z,17.00
2023-04-28T16:03:15.111Z,17.00
2023-04-28T16:05:43.185Z,17.00
2023-04-28T16:08:11.131Z,17.00
2023-04-28T16:10:41.299Z,16.90
2023-04-28T16:13:11.351Z,16.90
2023-04-28T16:15:41.899Z,17.00
2023-04-28T16:18:10.062Z,16.90
2023-04-28T16:20:38.075Z,17.00
2023-04-28T16:23:06.535Z,16.80
2023-04-28T16:28:03.344Z,16.80
2023-04-28T16:30:32.696Z,16.80
2023-04-28T16:33:02.002Z,16.70
2023-04-28T16:35:30.122Z,16.50
2023-04-28T16:37:58.059Z,16.50
2023-04-28T16:40:26.266Z,16.40
2023-04-28T16:42:54.164Z,16.30
2023-04-28T16:45:22.798Z,16.20
2023-04-28T16:47:50.759Z,16.30
2023-04-28T16:50:20.212Z,16.40
2023-04-28T16:52:48.233Z,16.40
2023-04-28T16:55:16.283Z,16.40
2023-04-28T16:57:44.224Z,16.30
2023-04-28T17:00:12.918Z,16.30
2023-04-28T17:02:41.023Z,16.30
2023-04-28T17:05:09.637Z,16.20
2023-04-28T17:07:38.891Z,16.20
2023-04-28T17:10:08.264Z,16.00
2023-04-28T17:12:36.355Z,16.10
2023-04-28T17:15:04.368Z,15.90
2023-04-28T17:17:33.562Z,16.00
2023-04-28T17:20:02.390Z,15.90
2023-04-28T17:22:30.771Z,15.80
2023-04-28T17:25:00.033Z,15.80
2023-04-28T17:27:27.921Z,15.80
2023-04-28T17:29:55.949Z,15.80
2023-04-28T17:32:23.855Z,15.80
2023-04-28T17:34:51.785Z,15.80
2023-04-28T17:37:19.701Z,15.80
2023-04-28T17:39:50.399Z,15.80
2023-04-28T17:42:20.005Z,15.80
2023-04-28T17:44:47.898Z,15.80
2023-04-28T17:47:17.173Z,15.70
2023-04-28T17:49:45.841Z,15.70
2023-04-28T17:52:15.525Z,15.70
2023-04-28T17:54:43.726Z,15.60
2023-04-28T17:57:11.645Z,15.60
2023-04-28T17:59:42.601Z,15.50
2023-04-28T18:02:11.146Z,15.40
2023-04-28T18:04:39.516Z,15.40
2023-04-28T18:07:07.835Z,15.30
2023-04-28T18:09:35.754Z,15.40
2023-04-28T18:12:04.547Z,15.30
2023-04-28T18:14:32.629Z,15.10
2023-04-28T18:17:01.913Z,15.00
2023-04-28T18:19:31.078Z,14.90
2023-04-28T18:21:58.988Z,15.00
2023-04-28T18:24:27.000Z,14.90
2023-04-28T18:26:55.039Z,14.90
2023-04-28T18:29:22.947Z,14.90
2023-04-28T18:31:51.489Z,14.80
2023-04-28T18:34:21.221Z,14.80
2023-04-28T18:36:49.977Z,14.80
2023-04-28T18:39:18.285Z,14.80
2023-04-28T18:41:46.159Z,14.70
2023-04-28T18:44:14.054Z,14.70
2023-04-28T18:46:42.082Z,14.60
2023-04-28T18:49:10.321Z,14.60
2023-04-28T18:51:39.934Z,14.60
2023-04-28T18:54:07.810Z,14.60
2023-04-28T18:56:36.089Z,14.60
2023-04-28T18:59:04.253Z,14.60
2023-04-28T19:01:32.303Z,14.50
2023-04-28T19:04:00.636Z,14.50
2023-04-28T19:06:28.651Z,14.50
2023-04-28T19:11:26.792Z,14.50
2023-04-28T19:16:23.680Z,14.20
2023-04-28T19:18:51.664Z,14.30
2023-04-28T19:21:20.121Z,14.30
2023-04-28T19:23:48.377Z,14.30
2023-04-28T19:26:16.645Z,14.30
2023-04-28T19:28:46.015Z,14.40
2023-04-28T19:33:42.100Z,14.20
2023-04-28T19:36:10.256Z,14.10
2023-04-28T19:38:40.326Z,14.10
